Air Resources Laboratory banner image
Air Resources Laboratory web site National Oceanic and Atmospheric Administration (NOAA)

nd metar


KBIS 191552Z 06007KT 10SM OVC095 M16/M21 A3021 RMK AO2 SLP274 T11611211=
KDIK 191556Z AUTO 08005KT 10SM SCT080 OVC090 M17/M23 A3011 RMK AO2 SLP260
 T11721233=
KDVL 191556Z AUTO 02005KT 10SM CLR M22/M25 A3025 RMK AO2 SLP303 T12171250
 FZRANO=
KFAR 191553Z 01015KT 10SM CLR M14/M18 A3019 RMK AO2 SLP247 T11441183 $=
KGFK 191553Z 36014KT 10SM SCT160 OVC200 M18/M22 A3029 RMK AO2 SLP280 T11831222
 $=
KHEI 191553Z AUTO 03010KT 10SM OVC060 M17/M23 A3008 RMK AO2 SLP252 T11721228 $=
KISN 191552Z AUTO 00000KT 10SM SCT095 SCT120 M22/M24 A3021 RMK AO2 SLP291
 T12221244=
KJMS 191556Z AUTO 03016KT 10SM CLR M16/M21 A3017 RMK AO2 SLP256 T11561206=
KMIB 191556Z AUTO 00000KT 10SM CLR M21/M25 A3021 RMK AO2 SLP285 T12091253 $=
KMOT 191554Z 00000KT 10SM CLR M19/M24 A3021 RMK AO2 SLP279 T11891239=
KN60 191552Z AUTO 34004KT M18/M24 A3019 RMK AO1 SLP275 T11831239=
KRDR 191556Z AUTO 02013KT 10SM CLR M18/M23 A3028 RMK AO2 SLP284 T11781227 $=